sensor_id;sensor_type;location;lat;lon;timestamp;P1;durP1;ratioP1;P2;durP2;ratioP2
20173;SDS011;10246;50.620;7.232;2022-11-13T00:00:47;11.23;;;7.43;;
20173;SDS011;10246;50.620;7.232;2022-11-13T00:03:14;10.07;;;6.97;;
20173;SDS011;10246;50.620;7.232;2022-11-13T00:05:40;8.10;;;6.50;;
20173;SDS011;10246;50.620;7.232;2022-11-13T00:08:07;9.40;;;6.63;;
20173;SDS011;10246;50.620;7.232;2022-11-13T00:10:35;9.13;;;6.27;;
20173;SDS011;10246;50.620;7.232;2022-11-13T00:13:02;9.43;;;6.90;;
20173;SDS011;10246;50.620;7.232;2022-11-13T00:15:29;15.07;;;9.60;;
20173;SDS011;10246;50.620;7.232;2022-11-13T00:17:58;24.20;;;13.50;;
20173;SDS011;10246;50.620;7.232;2022-11-13T00:20:29;27.93;;;15.10;;
20173;SDS011;10246;50.620;7.232;2022-11-13T00:22:55;23.17;;;13.17;;
20173;SDS011;10246;50.620;7.232;2022-11-13T00:25:22;14.63;;;10.00;;
20173;SDS011;10246;50.620;7.232;2022-11-13T00:27:50;12.27;;;8.13;;
20173;SDS011;10246;50.620;7.232;2022-11-13T00:30:17;10.67;;;7.57;;
20173;SDS011;10246;50.620;7.232;2022-11-13T00:32:44;11.13;;;7.13;;
20173;SDS011;10246;50.620;7.232;2022-11-13T00:35:10;10.20;;;6.03;;
20173;SDS011;10246;50.620;7.232;2022-11-13T00:37:37;9.47;;;6.47;;
20173;SDS011;10246;50.620;7.232;2022-11-13T00:40:04;8.90;;;6.27;;
20173;SDS011;10246;50.620;7.232;2022-11-13T00:42:32;9.83;;;6.60;;
20173;SDS011;10246;50.620;7.232;2022-11-13T00:45:00;8.03;;;6.17;;
20173;SDS011;10246;50.620;7.232;2022-11-13T00:47:27;7.90;;;5.80;;
20173;SDS011;10246;50.620;7.232;2022-11-13T00:49:54;8.53;;;5.87;;
20173;SDS011;10246;50.620;7.232;2022-11-13T00:52:38;7.33;;;5.57;;
20173;SDS011;10246;50.620;7.232;2022-11-13T00:58:05;8.77;;;5.73;;
20173;SDS011;10246;50.620;7.232;2022-11-13T01:00:42;11.17;;;6.87;;
20173;SDS011;10246;50.620;7.232;2022-11-13T01:03:10;9.50;;;7.07;;
20173;SDS011;10246;50.620;7.232;2022-11-13T01:05:38;9.73;;;7.13;;
20173;SDS011;10246;50.620;7.232;2022-11-13T01:08:28;10.87;;;6.97;;
20173;SDS011;10246;50.620;7.232;2022-11-13T01:11:14;9.70;;;5.93;;
20173;SDS011;10246;50.620;7.232;2022-11-13T01:13:47;8.90;;;6.20;;
20173;SDS011;10246;50.620;7.232;2022-11-13T01:16:31;8.87;;;5.90;;
20173;SDS011;10246;50.620;7.232;2022-11-13T01:19:01;7.20;;;5.10;;
20173;SDS011;10246;50.620;7.232;2022-11-13T01:21:32;8.33;;;5.60;;
20173;SDS011;10246;50.620;7.232;2022-11-13T01:24:14;6.53;;;5.47;;
20173;SDS011;10246;50.620;7.232;2022-11-13T01:26:41;6.40;;;5.07;;
20173;SDS011;10246;50.620;7.232;2022-11-13T01:29:08;7.50;;;5.57;;
20173;SDS011;10246;50.620;7.232;2022-11-13T01:31:37;6.70;;;5.30;;
20173;SDS011;10246;50.620;7.232;2022-11-13T01:34:08;7.57;;;5.20;;
20173;SDS011;10246;50.620;7.232;2022-11-13T01:36:37;9.67;;;4.90;;
20173;SDS011;10246;50.620;7.232;2022-11-13T01:39:05;7.50;;;4.80;;
20173;SDS011;10246;50.620;7.232;2022-11-13T01:41:32;6.63;;;5.20;;
20173;SDS011;10246;50.620;7.232;2022-11-13T01:43:59;6.50;;;5.17;;
20173;SDS011;10246;50.620;7.232;2022-11-13T01:46:30;7.00;;;4.93;;
20173;SDS011;10246;50.620;7.232;2022-11-13T01:49:03;7.00;;;5.13;;
20173;SDS011;10246;50.620;7.232;2022-11-13T01:54:47;6.13;;;4.60;;
20173;SDS011;10246;50.620;7.232;2022-11-13T01:57:28;7.17;;;5.33;;
20173;SDS011;10246;50.620;7.232;2022-11-13T02:00:02;9.17;;;5.50;;
20173;SDS011;10246;50.620;7.232;2022-11-13T02:02:32;8.90;;;5.93;;
20173;SDS011;10246;50.620;7.232;2022-11-13T02:05:00;10.43;;;6.83;;
20173;SDS011;10246;50.620;7.232;2022-11-13T02:07:28;10.27;;;7.00;;
20173;SDS011;10246;50.620;7.232;2022-11-13T02:10:09;10.97;;;7.50;;
20173;SDS011;10246;50.620;7.232;2022-11-13T02:12:47;10.63;;;6.63;;
20173;SDS011;10246;50.620;7.232;2022-11-13T02:15:16;10.17;;;6.97;;
20173;SDS011;10246;50.620;7.232;2022-11-13T02:17:57;10.90;;;7.83;;
20173;SDS011;10246;50.620;7.232;2022-11-13T02:20:29;13.83;;;8.70;;
20173;SDS011;10246;50.620;7.232;2022-11-13T02:23:08;14.63;;;10.20;;
20173;SDS011;10246;50.620;7.232;2022-11-13T02:25:55;14.10;;;9.37;;
20173;SDS011;10246;50.620;7.232;2022-11-13T02:28:28;15.57;;;10.00;;
20173;SDS011;10246;50.620;7.232;2022-11-13T02:30:55;14.87;;;9.67;;
20173;SDS011;10246;50.620;7.232;2022-11-13T02:33:23;17.87;;;10.37;;
20173;SDS011;10246;50.620;7.232;2022-11-13T02:35:51;16.40;;;10.53;;
20173;SDS011;10246;50.620;7.232;2022-11-13T02:38:19;15.40;;;9.57;;
20173;SDS011;10246;50.620;7.232;2022-11-13T02:41:01;15.07;;;9.50;;
20173;SDS011;10246;50.620;7.232;2022-11-13T02:43:27;18.07;;;10.20;;
20173;SDS011;10246;50.620;7.232;2022-11-13T02:46:00;17.03;;;9.60;;
20173;SDS011;10246;50.620;7.232;2022-11-13T02:48:27;16.13;;;9.57;;
20173;SDS011;10246;50.620;7.232;2022-11-13T02:51:00;16.27;;;9.70;;
20173;SDS011;10246;50.620;7.232;2022-11-13T02:53:36;15.30;;;9.17;;
20173;SDS011;10246;50.620;7.232;2022-11-13T02:56:04;17.00;;;9.53;;
20173;SDS011;10246;50.620;7.232;2022-11-13T02:58:32;20.03;;;10.90;;
20173;SDS011;10246;50.620;7.232;2022-11-13T03:01:00;18.37;;;10.33;;
20173;SDS011;10246;50.620;7.232;2022-11-13T03:03:27;17.53;;;10.60;;
20173;SDS011;10246;50.620;7.232;2022-11-13T03:05:54;15.00;;;9.43;;
20173;SDS011;10246;50.620;7.232;2022-11-13T03:08:21;13.67;;;9.03;;
20173;SDS011;10246;50.620;7.232;2022-11-13T03:11:06;15.67;;;8.70;;
20173;SDS011;10246;50.620;7.232;2022-11-13T03:13:45;15.90;;;8.50;;
20173;SDS011;10246;50.620;7.232;2022-11-13T03:16:18;14.73;;;8.63;;
20173;SDS011;10246;50.620;7.232;2022-11-13T03:18:48;13.83;;;8.13;;
20173;SDS011;10246;50.620;7.232;2022-11-13T03:21:22;15.20;;;8.37;;
20173;SDS011;10246;50.620;7.232;2022-11-13T03:23:55;16.27;;;9.97;;
20173;SDS011;10246;50.620;7.232;2022-11-13T03:29:30;15.40;;;9.37;;
20173;SDS011;10246;50.620;7.232;2022-11-13T03:31:57;13.20;;;8.43;;
20173;SDS011;10246;50.620;7.232;2022-11-13T03:34:24;13.40;;;8.80;;
20173;SDS011;10246;50.620;7.232;2022-11-13T03:36:51;15.60;;;8.83;;
20173;SDS011;10246;50.620;7.232;2022-11-13T03:39:39;14.53;;;8.87;;
20173;SDS011;10246;50.620;7.232;2022-11-13T03:42:45;14.93;;;9.47;;
20173;SDS011;10246;50.620;7.232;2022-11-13T03:45:20;14.60;;;9.53;;
20173;SDS011;10246;50.620;7.232;2022-11-13T03:47:47;14.77;;;10.20;;
20173;SDS011;10246;50.620;7.232;2022-11-13T03:50:14;13.93;;;9.40;;
20173;SDS011;10246;50.620;7.232;2022-11-13T03:52:41;15.10;;;9.67;;
20173;SDS011;10246;50.620;7.232;2022-11-13T03:55:08;17.17;;;9.90;;
20173;SDS011;10246;50.620;7.232;2022-11-13T03:57:35;17.87;;;10.33;;
20173;SDS011;10246;50.620;7.232;2022-11-13T04:00:03;15.90;;;10.40;;
20173;SDS011;10246;50.620;7.232;2022-11-13T04:02:31;16.33;;;9.87;;
20173;SDS011;10246;50.620;7.232;2022-11-13T04:04:57;14.47;;;9.00;;
20173;SDS011;10246;50.620;7.232;2022-11-13T04:07:26;14.57;;;10.03;;
20173;SDS011;10246;50.620;7.232;2022-11-13T04:09:53;15.67;;;9.90;;
20173;SDS011;10246;50.620;7.232;2022-11-13T04:12:20;15.13;;;9.80;;
20173;SDS011;10246;50.620;7.232;2022-11-13T04:14:46;15.67;;;9.87;;
20173;SDS011;10246;50.620;7.232;2022-11-13T04:17:14;14.03;;;9.10;;
20173;SDS011;10246;50.620;7.232;2022-11-13T04:19:41;14.57;;;9.33;;
20173;SDS011;10246;50.620;7.232;2022-11-13T04:22:10;12.87;;;8.37;;
20173;SDS011;10246;50.620;7.232;2022-11-13T04:24:48;13.63;;;8.50;;
20173;SDS011;10246;50.620;7.232;2022-11-13T04:27:15;12.37;;;9.00;;
20173;SDS011;10246;50.620;7.232;2022-11-13T04:29:42;12.73;;;8.70;;
20173;SDS011;10246;50.620;7.232;2022-11-13T04:32:14;12.20;;;8.07;;
20173;SDS011;10246;50.620;7.232;2022-11-13T04:35:00;10.87;;;7.57;;
20173;SDS011;10246;50.620;7.232;2022-11-13T04:37:29;12.30;;;7.83;;
20173;SDS011;10246;50.620;7.232;2022-11-13T04:40:13;10.47;;;7.40;;
20173;SDS011;10246;50.620;7.232;2022-11-13T04:42:40;10.70;;;7.10;;
20173;SDS011;10246;50.620;7.232;2022-11-13T04:45:20;10.83;;;7.80;;
20173;SDS011;10246;50.620;7.232;2022-11-13T04:47:51;12.27;;;7.63;;
20173;SDS011;10246;50.620;7.232;2022-11-13T04:50:30;12.13;;;7.73;;
20173;SDS011;10246;50.620;7.232;2022-11-13T04:53:30;10.43;;;7.33;;
20173;SDS011;10246;50.620;7.232;2022-11-13T04:56:04;9.53;;;6.60;;
20173;SDS011;10246;50.620;7.232;2022-11-13T04:58:32;10.83;;;7.03;;
20173;SDS011;10246;50.620;7.232;2022-11-13T05:00:59;10.07;;;6.97;;
20173;SDS011;10246;50.620;7.232;2022-11-13T05:03:33;9.40;;;6.53;;
20173;SDS011;10246;50.620;7.232;2022-11-13T05:06:05;9.83;;;6.37;;
20173;SDS011;10246;50.620;7.232;2022-11-13T05:08:36;10.33;;;6.63;;
20173;SDS011;10246;50.620;7.232;2022-11-13T05:11:03;10.40;;;6.80;;
20173;SDS011;10246;50.620;7.232;2022-11-13T05:13:30;12.50;;;7.27;;
20173;SDS011;10246;50.620;7.232;2022-11-13T05:16:01;8.43;;;6.40;;
20173;SDS011;10246;50.620;7.232;2022-11-13T05:18:46;9.90;;;6.67;;
20173;SDS011;10246;50.620;7.232;2022-11-13T05:21:18;8.80;;;6.53;;
20173;SDS011;10246;50.620;7.232;2022-11-13T05:23:59;10.50;;;6.67;;
20173;SDS011;10246;50.620;7.232;2022-11-13T05:26:26;10.90;;;7.40;;
20173;SDS011;10246;50.620;7.232;2022-11-13T05:29:16;12.13;;;7.80;;
20173;SDS011;10246;50.620;7.232;2022-11-13T05:31:52;12.97;;;8.30;;
20173;SDS011;10246;50.620;7.232;2022-11-13T05:34:26;12.93;;;8.30;;
20173;SDS011;10246;50.620;7.232;2022-11-13T05:37:16;14.03;;;8.53;;
20173;SDS011;10246;50.620;7.232;2022-11-13T05:39:43;14.50;;;9.00;;
20173;SDS011;10246;50.620;7.232;2022-11-13T05:42:11;14.00;;;8.67;;
20173;SDS011;10246;50.620;7.232;2022-11-13T05:44:39;15.77;;;9.23;;
20173;SDS011;10246;50.620;7.232;2022-11-13T05:47:15;16.37;;;10.30;;
20173;SDS011;10246;50.620;7.232;2022-11-13T05:49:51;14.47;;;9.57;;
20173;SDS011;10246;50.620;7.232;2022-11-13T05:52:27;17.03;;;10.67;;
20173;SDS011;10246;50.620;7.232;2022-11-13T05:55:06;14.40;;;9.30;;
20173;SDS011;10246;50.620;7.232;2022-11-13T05:57:33;15.37;;;10.27;;
20173;SDS011;10246;50.620;7.232;2022-11-13T06:00:01;14.27;;;10.10;;
20173;SDS011;10246;50.620;7.232;2022-11-13T06:02:28;19.63;;;11.77;;
20173;SDS011;10246;50.620;7.232;2022-11-13T06:04:55;22.77;;;13.90;;
20173;SDS011;10246;50.620;7.232;2022-11-13T06:07:23;21.30;;;13.27;;
20173;SDS011;10246;50.620;7.232;2022-11-13T06:09:50;23.90;;;14.17;;
20173;SDS011;10246;50.620;7.232;2022-11-13T06:12:17;19.47;;;12.63;;
20173;SDS011;10246;50.620;7.232;2022-11-13T06:14:43;17.00;;;11.10;;
20173;SDS011;10246;50.620;7.232;2022-11-13T06:17:10;13.07;;;9.27;;
20173;SDS011;10246;50.620;7.232;2022-11-13T06:19:37;11.63;;;8.77;;
20173;SDS011;10246;50.620;7.232;2022-11-13T06:22:05;10.23;;;8.07;;
20173;SDS011;10246;50.620;7.232;2022-11-13T06:24:33;11.10;;;7.87;;
20173;SDS011;10246;50.620;7.232;2022-11-13T06:27:00;9.60;;;7.10;;
20173;SDS011;10246;50.620;7.232;2022-11-13T06:29:27;11.13;;;8.00;;
20173;SDS011;10246;50.620;7.232;2022-11-13T06:31:53;10.27;;;7.00;;
20173;SDS011;10246;50.620;7.232;2022-11-13T06:34:20;8.83;;;7.03;;
20173;SDS011;10246;50.620;7.232;2022-11-13T06:36:48;7.93;;;6.20;;
20173;SDS011;10246;50.620;7.232;2022-11-13T06:39:15;9.37;;;6.73;;
20173;SDS011;10246;50.620;7.232;2022-11-13T06:41:43;9.50;;;6.47;;
20173;SDS011;10246;50.620;7.232;2022-11-13T06:44:10;9.20;;;6.40;;
20173;SDS011;10246;50.620;7.232;2022-11-13T06:46:36;9.80;;;6.60;;
20173;SDS011;10246;50.620;7.232;2022-11-13T06:49:03;9.23;;;6.37;;
20173;SDS011;10246;50.620;7.232;2022-11-13T06:51:30;9.03;;;6.90;;
20173;SDS011;10246;50.620;7.232;2022-11-13T06:53:57;9.30;;;6.63;;
20173;SDS011;10246;50.620;7.232;2022-11-13T06:56:24;10.67;;;7.03;;
20173;SDS011;10246;50.620;7.232;2022-11-13T06:58:53;10.23;;;6.63;;
20173;SDS011;10246;50.620;7.232;2022-11-13T07:01:21;8.60;;;6.67;;
20173;SDS011;10246;50.620;7.232;2022-11-13T07:03:49;9.40;;;6.57;;
20173;SDS011;10246;50.620;7.232;2022-11-13T07:06:17;9.37;;;6.47;;
20173;SDS011;10246;50.620;7.232;2022-11-13T07:08:45;10.27;;;7.37;;
20173;SDS011;10246;50.620;7.232;2022-11-13T07:11:13;9.90;;;6.87;;
20173;SDS011;10246;50.620;7.232;2022-11-13T07:13:41;8.97;;;6.63;;
20173;SDS011;10246;50.620;7.232;2022-11-13T07:16:10;8.97;;;6.87;;
20173;SDS011;10246;50.620;7.232;2022-11-13T07:18:39;8.53;;;6.60;;
20173;SDS011;10246;50.620;7.232;2022-11-13T07:21:06;10.50;;;6.57;;
20173;SDS011;10246;50.620;7.232;2022-11-13T07:23:34;9.33;;;6.27;;
20173;SDS011;10246;50.620;7.232;2022-11-13T07:26:04;8.00;;;6.30;;
20173;SDS011;10246;50.620;7.232;2022-11-13T07:28:32;9.07;;;6.53;;
20173;SDS011;10246;50.620;7.232;2022-11-13T07:30:59;7.80;;;5.93;;
20173;SDS011;10246;50.620;7.232;2022-11-13T07:33:27;9.73;;;5.60;;
20173;SDS011;10246;50.620;7.232;2022-11-13T07:35:54;8.90;;;6.37;;
20173;SDS011;10246;50.620;7.232;2022-11-13T07:38:21;8.73;;;5.80;;
20173;SDS011;10246;50.620;7.232;2022-11-13T07:40:48;9.03;;;6.57;;
20173;SDS011;10246;50.620;7.232;2022-11-13T07:43:16;11.87;;;7.37;;
20173;SDS011;10246;50.620;7.232;2022-11-13T07:45:43;15.70;;;9.10;;
20173;SDS011;10246;50.620;7.232;2022-11-13T07:48:09;18.93;;;10.80;;
20173;SDS011;10246;50.620;7.232;2022-11-13T07:50:38;20.73;;;11.50;;
20173;SDS011;10246;50.620;7.232;2022-11-13T07:53:06;18.67;;;12.50;;
20173;SDS011;10246;50.620;7.232;2022-11-13T07:55:34;20.47;;;12.30;;
20173;SDS011;10246;50.620;7.232;2022-11-13T07:58:02;18.50;;;11.87;;
20173;SDS011;10246;50.620;7.232;2022-11-13T08:00:30;18.73;;;11.10;;
20173;SDS011;10246;50.620;7.232;2022-11-13T08:03:03;15.70;;;9.67;;
20173;SDS011;10246;50.620;7.232;2022-11-13T08:05:31;12.80;;;8.47;;
20173;SDS011;10246;50.620;7.232;2022-11-13T08:07:59;11.47;;;7.30;;
20173;SDS011;10246;50.620;7.232;2022-11-13T08:10:26;8.83;;;6.77;;
20173;SDS011;10246;50.620;7.232;2022-11-13T08:12:58;9.00;;;6.87;;
20173;SDS011;10246;50.620;7.232;2022-11-13T08:15:25;11.30;;;7.07;;
20173;SDS011;10246;50.620;7.232;2022-11-13T08:17:53;8.73;;;6.83;;
20173;SDS011;10246;50.620;7.232;2022-11-13T08:20:20;9.53;;;7.37;;
20173;SDS011;10246;50.620;7.232;2022-11-13T08:22:47;12.60;;;8.63;;
20173;SDS011;10246;50.620;7.232;2022-11-13T08:25:16;9.87;;;7.47;;
20173;SDS011;10246;50.620;7.232;2022-11-13T08:27:44;11.83;;;8.03;;
20173;SDS011;10246;50.620;7.232;2022-11-13T08:30:12;14.40;;;7.83;;
20173;SDS011;10246;50.620;7.232;2022-11-13T08:32:41;11.37;;;8.50;;
20173;SDS011;10246;50.620;7.232;2022-11-13T08:35:08;23.23;;;12.83;;
20173;SDS011;10246;50.620;7.232;2022-11-13T08:37:35;23.57;;;12.03;;
20173;SDS011;10246;50.620;7.232;2022-11-13T08:40:02;16.30;;;10.35;;
20173;SDS011;10246;50.620;7.232;2022-11-13T08:42:31;16.10;;;10.03;;
20173;SDS011;10246;50.620;7.232;2022-11-13T08:44:58;14.67;;;9.33;;
20173;SDS011;10246;50.620;7.232;2022-11-13T08:47:25;14.63;;;9.60;;
20173;SDS011;10246;50.620;7.232;2022-11-13T08:49:53;13.63;;;9.60;;
20173;SDS011;10246;50.620;7.232;2022-11-13T08:52:20;13.10;;;8.67;;
20173;SDS011;10246;50.620;7.232;2022-11-13T08:54:47;14.17;;;10.10;;
20173;SDS011;10246;50.620;7.232;2022-11-13T08:57:14;13.37;;;9.37;;
20173;SDS011;10246;50.620;7.232;2022-11-13T08:59:42;16.73;;;11.67;;
20173;SDS011;10246;50.620;7.232;2022-11-13T09:02:10;17.10;;;11.57;;
20173;SDS011;10246;50.620;7.232;2022-11-13T09:04:39;18.83;;;12.13;;
20173;SDS011;10246;50.620;7.232;2022-11-13T09:07:06;20.83;;;14.37;;
20173;SDS011;10246;50.620;7.232;2022-11-13T09:09:33;20.90;;;13.13;;
20173;SDS011;10246;50.620;7.232;2022-11-13T09:12:01;18.40;;;12.87;;
20173;SDS011;10246;50.620;7.232;2022-11-13T09:14:28;20.37;;;12.43;;
20173;SDS011;10246;50.620;7.232;2022-11-13T09:16:56;16.83;;;11.27;;
20173;SDS011;10246;50.620;7.232;2022-11-13T09:19:22;14.90;;;10.13;;
20173;SDS011;10246;50.620;7.232;2022-11-13T09:21:49;14.63;;;10.10;;
20173;SDS011;10246;50.620;7.232;2022-11-13T09:24:16;14.40;;;10.10;;
20173;SDS011;10246;50.620;7.232;2022-11-13T09:26:44;13.70;;;9.23;;
20173;SDS011;10246;50.620;7.232;2022-11-13T09:29:11;14.47;;;9.80;;
20173;SDS011;10246;50.620;7.232;2022-11-13T09:31:39;14.40;;;9.30;;
20173;SDS011;10246;50.620;7.232;2022-11-13T09:34:09;12.87;;;9.10;;
20173;SDS011;10246;50.620;7.232;2022-11-13T09:36:35;13.30;;;9.03;;
20173;SDS011;10246;50.620;7.232;2022-11-13T09:39:02;12.83;;;9.30;;
20173;SDS011;10246;50.620;7.232;2022-11-13T09:41:31;12.47;;;8.70;;
20173;SDS011;10246;50.620;7.232;2022-11-13T09:44:04;12.40;;;8.77;;
20173;SDS011;10246;50.620;7.232;2022-11-13T09:46:39;10.53;;;8.00;;
20173;SDS011;10246;50.620;7.232;2022-11-13T09:49:13;11.17;;;8.20;;
20173;SDS011;10246;50.620;7.232;2022-11-13T09:51:41;11.10;;;7.67;;
20173;SDS011;10246;50.620;7.232;2022-11-13T09:54:15;10.33;;;7.23;;
20173;SDS011;10246;50.620;7.232;2022-11-13T09:56:42;11.03;;;7.07;;
20173;SDS011;10246;50.620;7.232;2022-11-13T09:59:17;8.97;;;6.87;;
20173;SDS011;10246;50.620;7.232;2022-11-13T10:01:51;9.30;;;7.07;;
20173;SDS011;10246;50.620;7.232;2022-11-13T10:04:29;8.77;;;6.87;;
20173;SDS011;10246;50.620;7.232;2022-11-13T10:07:04;8.13;;;6.10;;
20173;SDS011;10246;50.620;7.232;2022-11-13T10:09:47;6.10;;;4.50;;
20173;SDS011;10246;50.620;7.232;2022-11-13T10:12:30;5.83;;;4.37;;
20173;SDS011;10246;50.620;7.232;2022-11-13T10:14:59;5.50;;;4.70;;
20173;SDS011;10246;50.620;7.232;2022-11-13T10:17:27;7.27;;;5.33;;
20173;SDS011;10246;50.620;7.232;2022-11-13T10:20:01;6.23;;;4.83;;
20173;SDS011;10246;50.620;7.232;2022-11-13T10:22:30;5.80;;;4.67;;
20173;SDS011;10246;50.620;7.232;2022-11-13T10:25:09;5.77;;;3.97;;
20173;SDS011;10246;50.620;7.232;2022-11-13T10:27:39;6.73;;;4.30;;
20173;SDS011;10246;50.620;7.232;2022-11-13T10:30:11;6.47;;;5.20;;
20173;SDS011;10246;50.620;7.232;2022-11-13T10:32:41;5.30;;;4.00;;
20173;SDS011;10246;50.620;7.232;2022-11-13T10:35:15;5.23;;;3.80;;
20173;SDS011;10246;50.620;7.232;2022-11-13T10:37:54;4.37;;;3.93;;
20173;SDS011;10246;50.620;7.232;2022-11-13T10:40:25;5.53;;;3.47;;
20173;SDS011;10246;50.620;7.232;2022-11-13T10:42:52;4.17;;;3.53;;
20173;SDS011;10246;50.620;7.232;2022-11-13T10:45:20;4.90;;;3.70;;
20173;SDS011;10246;50.620;7.232;2022-11-13T10:47:48;12.67;;;8.10;;
20173;SDS011;10246;50.620;7.232;2022-11-13T10:50:23;6.37;;;4.90;;
20173;SDS011;10246;50.620;7.232;2022-11-13T10:52:51;4.03;;;3.23;;
20173;SDS011;10246;50.620;7.232;2022-11-13T10:55:21;4.13;;;3.33;;
20173;SDS011;10246;50.620;7.232;2022-11-13T10:57:55;4.73;;;3.50;;
20173;SDS011;10246;50.620;7.232;2022-11-13T11:00:24;4.37;;;3.17;;
20173;SDS011;10246;50.620;7.232;2022-11-13T11:02:55;5.17;;;2.70;;
20173;SDS011;10246;50.620;7.232;2022-11-13T11:05:24;4.83;;;4.03;;
20173;SDS011;10246;50.620;7.232;2022-11-13T11:07:52;7.40;;;5.07;;
20173;SDS011;10246;50.620;7.232;2022-11-13T11:10:21;5.63;;;4.87;;
20173;SDS011;10246;50.620;7.232;2022-11-13T11:12:52;7.90;;;4.87;;
20173;SDS011;10246;50.620;7.232;2022-11-13T11:15:21;6.77;;;4.40;;
20173;SDS011;10246;50.620;7.232;2022-11-13T11:17:52;7.47;;;4.93;;
20173;SDS011;10246;50.620;7.232;2022-11-13T11:20:27;5.67;;;4.37;;
20173;SDS011;10246;50.620;7.232;2022-11-13T11:23:09;5.97;;;4.63;;
20173;SDS011;10246;50.620;7.232;2022-11-13T11:25:49;7.63;;;4.93;;
20173;SDS011;10246;50.620;7.232;2022-11-13T11:28:24;6.23;;;4.63;;
20173;SDS011;10246;50.620;7.232;2022-11-13T11:30:58;7.33;;;5.27;;
20173;SDS011;10246;50.620;7.232;2022-11-13T11:33:31;7.03;;;5.40;;
20173;SDS011;10246;50.620;7.232;2022-11-13T11:36:05;6.10;;;4.83;;
20173;SDS011;10246;50.620;7.232;2022-11-13T11:38:42;6.27;;;4.90;;
20173;SDS011;10246;50.620;7.232;2022-11-13T11:41:16;6.10;;;5.03;;
20173;SDS011;10246;50.620;7.232;2022-11-13T11:43:50;6.13;;;4.90;;
20173;SDS011;10246;50.620;7.232;2022-11-13T11:46:26;7.60;;;5.17;;
20173;SDS011;10246;50.620;7.232;2022-11-13T11:48:55;8.33;;;5.50;;
20173;SDS011;10246;50.620;7.232;2022-11-13T11:51:30;5.63;;;4.67;;
20173;SDS011;10246;50.620;7.232;2022-11-13T11:54:03;6.40;;;3.97;;
20173;SDS011;10246;50.620;7.232;2022-11-13T11:56:37;5.80;;;4.53;;
20173;SDS011;10246;50.620;7.232;2022-11-13T12:02:20;4.97;;;4.43;;
20173;SDS011;10246;50.620;7.232;2022-11-13T12:05:02;4.83;;;3.90;;
20173;SDS011;10246;50.620;7.232;2022-11-13T12:07:42;5.30;;;4.37;;
20173;SDS011;10246;50.620;7.232;2022-11-13T12:10:21;6.27;;;4.10;;
20173;SDS011;10246;50.620;7.232;2022-11-13T12:13:05;5.53;;;4.20;;
20173;SDS011;10246;50.620;7.232;2022-11-13T12:15:48;4.60;;;3.60;;
20173;SDS011;10246;50.620;7.232;2022-11-13T12:18:23;4.63;;;3.60;;
20173;SDS011;10246;50.620;7.232;2022-11-13T12:21:00;5.03;;;3.87;;
20173;SDS011;10246;50.620;7.232;2022-11-13T12:23:42;5.03;;;4.27;;
20173;SDS011;10246;50.620;7.232;2022-11-13T12:26:22;4.90;;;4.20;;
20173;SDS011;10246;50.620;7.232;2022-11-13T12:28:55;5.47;;;4.47;;
20173;SDS011;10246;50.620;7.232;2022-11-13T12:31:31;6.33;;;4.00;;
20173;SDS011;10246;50.620;7.232;2022-11-13T12:34:14;5.00;;;3.37;;
20173;SDS011;10246;50.620;7.232;2022-11-13T12:36:53;5.23;;;3.33;;
20173;SDS011;10246;50.620;7.232;2022-11-13T12:39:29;4.60;;;3.30;;
20173;SDS011;10246;50.620;7.232;2022-11-13T12:42:02;5.63;;;4.23;;
20173;SDS011;10246;50.620;7.232;2022-11-13T12:44:39;6.40;;;4.90;;
20173;SDS011;10246;50.620;7.232;2022-11-13T12:47:14;6.87;;;4.47;;
20173;SDS011;10246;50.620;7.232;2022-11-13T12:49:41;6.33;;;4.37;;
20173;SDS011;10246;50.620;7.232;2022-11-13T12:52:16;5.77;;;4.20;;
20173;SDS011;10246;50.620;7.232;2022-11-13T12:54:46;6.40;;;4.23;;
20173;SDS011;10246;50.620;7.232;2022-11-13T12:57:16;7.13;;;5.30;;
20173;SDS011;10246;50.620;7.232;2022-11-13T12:59:47;7.10;;;5.00;;
20173;SDS011;10246;50.620;7.232;2022-11-13T13:02:20;4.23;;;3.17;;
20173;SDS011;10246;50.620;7.232;2022-11-13T13:05:03;3.23;;;2.60;;
20173;SDS011;10246;50.620;7.232;2022-11-13T13:07:43;2.53;;;2.23;;
20173;SDS011;10246;50.620;7.232;2022-11-13T13:10:31;2.70;;;2.43;;
20173;SDS011;10246;50.620;7.232;2022-11-13T13:13:09;2.87;;;2.40;;
20173;SDS011;10246;50.620;7.232;2022-11-13T13:15:42;2.50;;;2.30;;
20173;SDS011;10246;50.620;7.232;2022-11-13T13:18:23;2.90;;;2.30;;
20173;SDS011;10246;50.620;7.232;2022-11-13T13:21:00;2.50;;;2.30;;
20173;SDS011;10246;50.620;7.232;2022-11-13T13:23:30;2.60;;;2.07;;
20173;SDS011;10246;50.620;7.232;2022-11-13T13:26:04;4.30;;;2.27;;
20173;SDS011;10246;50.620;7.232;2022-11-13T13:28:39;2.87;;;2.30;;
20173;SDS011;10246;50.620;7.232;2022-11-13T13:31:12;3.87;;;2.50;;
20173;SDS011;10246;50.620;7.232;2022-11-13T13:33:50;3.30;;;2.30;;
20173;SDS011;10246;50.620;7.232;2022-11-13T13:36:28;3.50;;;2.23;;
20173;SDS011;10246;50.620;7.232;2022-11-13T13:39:02;3.27;;;2.50;;
20173;SDS011;10246;50.620;7.232;2022-11-13T13:41:43;2.53;;;2.20;;
20173;SDS011;10246;50.620;7.232;2022-11-13T13:44:24;3.70;;;2.13;;
20173;SDS011;10246;50.620;7.232;2022-11-13T13:47:08;2.90;;;2.30;;
20173;SDS011;10246;50.620;7.232;2022-11-13T13:49:52;3.20;;;2.50;;
20173;SDS011;10246;50.620;7.232;2022-11-13T13:52:21;3.73;;;2.73;;
20173;SDS011;10246;50.620;7.232;2022-11-13T13:54:53;3.30;;;2.67;;
20173;SDS011;10246;50.620;7.232;2022-11-13T13:57:23;3.97;;;2.30;;
20173;SDS011;10246;50.620;7.232;2022-11-13T13:59:51;3.20;;;2.30;;
20173;SDS011;10246;50.620;7.232;2022-11-13T14:02:19;2.90;;;2.10;;
20173;SDS011;10246;50.620;7.232;2022-11-13T14:04:48;2.50;;;1.90;;
20173;SDS011;10246;50.620;7.232;2022-11-13T14:07:18;2.17;;;1.97;;
20173;SDS011;10246;50.620;7.232;2022-11-13T14:09:49;2.20;;;1.90;;
20173;SDS011;10246;50.620;7.232;2022-11-13T14:12:30;2.07;;;1.70;;
20173;SDS011;10246;50.620;7.232;2022-11-13T14:14:57;3.20;;;1.80;;
20173;SDS011;10246;50.620;7.232;2022-11-13T14:17:24;3.20;;;1.80;;
20173;SDS011;10246;50.620;7.232;2022-11-13T14:19:53;4.17;;;2.03;;
20173;SDS011;10246;50.620;7.232;2022-11-13T14:22:24;2.60;;;2.20;;
20173;SDS011;10246;50.620;7.232;2022-11-13T14:24:53;2.97;;;2.63;;
20173;SDS011;10246;50.620;7.232;2022-11-13T14:27:22;2.53;;;2.30;;
20173;SDS011;10246;50.620;7.232;2022-11-13T14:29:53;2.30;;;2.00;;
20173;SDS011;10246;50.620;7.232;2022-11-13T14:32:22;2.40;;;2.20;;
20173;SDS011;10246;50.620;7.232;2022-11-13T14:34:53;2.80;;;2.00;;
20173;SDS011;10246;50.620;7.232;2022-11-13T14:37:23;2.50;;;1.90;;
20173;SDS011;10246;50.620;7.232;2022-11-13T14:39:52;2.10;;;1.90;;
20173;SDS011;10246;50.620;7.232;2022-11-13T14:42:21;2.90;;;2.10;;
20173;SDS011;10246;50.620;7.232;2022-11-13T14:45:03;4.83;;;2.20;;
20173;SDS011;10246;50.620;7.232;2022-11-13T14:47:37;2.27;;;2.07;;
20173;SDS011;10246;50.620;7.232;2022-11-13T14:50:12;4.93;;;2.30;;
20173;SDS011;10246;50.620;7.232;2022-11-13T14:52:54;2.40;;;2.20;;
20173;SDS011;10246;50.620;7.232;2022-11-13T14:55:25;3.17;;;2.60;;
20173;SDS011;10246;50.620;7.232;2022-11-13T14:57:53;3.30;;;2.50;;
20173;SDS011;10246;50.620;7.232;2022-11-13T15:00:27;3.07;;;2.63;;
20173;SDS011;10246;50.620;7.232;2022-11-13T15:02:56;3.53;;;2.57;;
20173;SDS011;10246;50.620;7.232;2022-11-13T15:05:24;3.57;;;2.50;;
20173;SDS011;10246;50.620;7.232;2022-11-13T15:07:51;3.17;;;2.20;;
20173;SDS011;10246;50.620;7.232;2022-11-13T15:10:20;3.67;;;2.47;;
20173;SDS011;10246;50.620;7.232;2022-11-13T15:12:49;3.03;;;2.23;;
20173;SDS011;10246;50.620;7.232;2022-11-13T15:15:17;3.17;;;2.57;;
20173;SDS011;10246;50.620;7.232;2022-11-13T15:17:46;2.40;;;2.00;;